Portada
METAR-TAF:

METAR-TAF

Aeropuertos :

Aeropuerto Internacional Ramon

Eilat, Israel

latitud: 29-43-25N, longitud: 35-00-41E, altitud: 88 m

Observación

El informe se hizo hace 7 horas y 11 minutos, a las 15:50 UTC
Viento 8 kt del norte-noroeste
Temperatura 38°C
Humedad 10%
Presión 1010 hPa
Visibilidad 10 km o más
sin nubes por debajo de 1500 m y sin presencia de cumulonimbus.

METAR: LLER 061550Z 34008KT CAVOK 38/01 Q1010

Hora: 02:01 (23:01 UTC)

Pronóstico

El informe se hizo hace 5 horas y 57 minutos, a las 17:04 UTC
Pronóstico válido del 06 a las 18 UTC al 07 a las 18 UTC
Viento 10 kt del norte
Visibilidad 10 km o más
sin nubes por debajo de 1500 m y sin presencia de cumulonimbus.
Evolucionando progresivamente
del 07 a las 07 UTC al 07 a las 10 UTC
Viento 15 kt del norte

TAF: LLER 061704Z 0618/0718 36010KT CAVOK BECMG 0707/0710 01015KT TX39/0713Z TN23/0703Z

Observaciones y pronósticos meteorológicos de más de 4000 aeropuertos (mensajes METAR y TAF).

Los puntos amarillos y rojos representan las estaciones disponibles.

Ponga el ratón en el punto deseado para ver el nombre de la estación.

Haga clic para ver las observaciones y los pronósticos meteorológicos.

Para cambiar el mapa : haga clic en los botones verdes con una cruz de color negro para hacer un zoom, en el botón verde con un guión para alejar o en las flechas verdes para mapas adyacentes.


METAR-TAF: